首页
METAR-TAF:

METAR-TAF

机场 :

成都双流国际机场

成都, 中华人民共和国

纬度: 30-40N, 经度: 104-01E, 海拔: 508米

当前天气观测

该预报发布于35分钟前的14:00 UTC
静风
温度 17°C
湿度 82%
气压 1020 hPa
能见度10公里或以上
散云层高于5000英尺

METAR: ZUUU 231400Z 00000MPS 9999 SCT050 17/14 Q1020 NOSIG

时间: 22:35 (14:35 UTC)

预报

该预报发布于6小时和27分钟前的08:08 UTC
预报有效从23日的 12点(UTC)到 24日的 12点(UTC)
风速6节,风向南转西南
能見度: 5000
散云层高于3000英尺
轻雾

TAF: ZUUU 230808Z 2312/2412 20003MPS 5000 BR SCT030 TX22/2407Z TN15/2323Z

超过4000个机场的气象观测和天气预报(METAR&TAF报告)。

可查询的气象台以黄色和红色小点在地图上表示。

将鼠标移到小点上方,可查看气象台名称。

然后点击查看天气观测和预报。

如需切换地图:点击带黑十字的绿色按钮放大地图;点击带横线的绿色按钮缩小地图;或者点击绿色箭头查看邻近地区的地图。


METAR-TAF: